sensor_id;sensor_type;location;lat;lon;timestamp;P1;durP1;ratioP1;P2;durP2;ratioP2
45944;SDS011;31655;48.972;10.686;2023-06-24T00:00:12;9.23;;;6.18;;
45944;SDS011;31655;48.972;10.686;2023-06-24T00:02:38;9.60;;;6.07;;
45944;SDS011;31655;48.972;10.686;2023-06-24T00:05:10;10.82;;;7.03;;
45944;SDS011;31655;48.972;10.686;2023-06-24T00:07:36;11.98;;;7.90;;
45944;SDS011;31655;48.972;10.686;2023-06-24T00:10:09;9.98;;;7.10;;
45944;SDS011;31655;48.972;10.686;2023-06-24T00:12:37;9.27;;;7.05;;
45944;SDS011;31655;48.972;10.686;2023-06-24T00:15:04;11.55;;;7.90;;
45944;SDS011;31655;48.972;10.686;2023-06-24T00:17:30;10.25;;;6.75;;
45944;SDS011;31655;48.972;10.686;2023-06-24T00:19:56;10.35;;;7.32;;
45944;SDS011;31655;48.972;10.686;2023-06-24T00:22:22;10.23;;;7.93;;
45944;SDS011;31655;48.972;10.686;2023-06-24T01:42:48;12.57;;;9.57;;
45944;SDS011;31655;48.972;10.686;2023-06-24T01:45:16;16.52;;;9.10;;
45944;SDS011;31655;48.972;10.686;2023-06-24T01:47:54;15.23;;;9.82;;
45944;SDS011;31655;48.972;10.686;2023-06-24T01:50:32;12.63;;;10.18;;
45944;SDS011;31655;48.972;10.686;2023-06-24T01:53:00;14.50;;;10.57;;
45944;SDS011;31655;48.972;10.686;2023-06-24T01:55:29;15.95;;;10.70;;
45944;SDS011;31655;48.972;10.686;2023-06-24T01:57:57;17.25;;;10.77;;
45944;SDS011;31655;48.972;10.686;2023-06-24T02:00:26;15.50;;;11.23;;
45944;SDS011;31655;48.972;10.686;2023-06-24T02:02:52;16.00;;;11.85;;
45944;SDS011;31655;48.972;10.686;2023-06-24T02:05:22;16.73;;;11.63;;
45944;SDS011;31655;48.972;10.686;2023-06-24T02:07:49;16.63;;;11.43;;
45944;SDS011;31655;48.972;10.686;2023-06-24T02:10:17;15.30;;;11.73;;
45944;SDS011;31655;48.972;10.686;2023-06-24T02:12:45;15.10;;;10.85;;
45944;SDS011;31655;48.972;10.686;2023-06-24T02:15:13;16.45;;;11.05;;
45944;SDS011;31655;48.972;10.686;2023-06-24T02:17:39;15.82;;;11.20;;
45944;SDS011;31655;48.972;10.686;2023-06-24T02:20:06;16.67;;;10.75;;
45944;SDS011;31655;48.972;10.686;2023-06-24T02:22:34;17.77;;;12.35;;
45944;SDS011;31655;48.972;10.686;2023-06-24T02:25:02;15.93;;;11.40;;
45944;SDS011;31655;48.972;10.686;2023-06-24T02:27:30;18.90;;;12.68;;
45944;SDS011;31655;48.972;10.686;2023-06-24T02:29:56;18.05;;;12.75;;
45944;SDS011;31655;48.972;10.686;2023-06-24T02:32:23;20.17;;;12.13;;
45944;SDS011;31655;48.972;10.686;2023-06-24T02:34:49;20.35;;;12.20;;
45944;SDS011;31655;48.972;10.686;2023-06-24T02:37:15;16.80;;;12.95;;
45944;SDS011;31655;48.972;10.686;2023-06-24T02:39:41;27.45;;;15.02;;
45944;SDS011;31655;48.972;10.686;2023-06-24T02:42:10;37.10;;;20.23;;
45944;SDS011;31655;48.972;10.686;2023-06-24T02:44:36;16.77;;;12.10;;
45944;SDS011;31655;48.972;10.686;2023-06-24T02:47:02;15.40;;;11.35;;
45944;SDS011;31655;48.972;10.686;2023-06-24T02:49:29;15.82;;;11.48;;
45944;SDS011;31655;48.972;10.686;2023-06-24T02:51:55;19.35;;;13.02;;
45944;SDS011;31655;48.972;10.686;2023-06-24T02:54:21;26.30;;;16.25;;
45944;SDS011;31655;48.972;10.686;2023-06-24T02:56:47;17.88;;;12.50;;
45944;SDS011;31655;48.972;10.686;2023-06-24T02:59:13;17.27;;;12.57;;
45944;SDS011;31655;48.972;10.686;2023-06-24T03:01:39;22.10;;;12.55;;
45944;SDS011;31655;48.972;10.686;2023-06-24T03:04:10;17.20;;;11.57;;
45944;SDS011;31655;48.972;10.686;2023-06-24T03:06:36;17.65;;;12.07;;
45944;SDS011;31655;48.972;10.686;2023-06-24T03:09:04;15.75;;;10.82;;
45944;SDS011;31655;48.972;10.686;2023-06-24T03:11:32;16.73;;;11.60;;
45944;SDS011;31655;48.972;10.686;2023-06-24T03:14:06;15.07;;;11.00;;
45944;SDS011;31655;48.972;10.686;2023-06-24T03:16:31;17.73;;;11.80;;
45944;SDS011;31655;48.972;10.686;2023-06-24T03:18:58;17.58;;;12.77;;
45944;SDS011;31655;48.972;10.686;2023-06-24T03:21:24;14.55;;;10.55;;
45944;SDS011;31655;48.972;10.686;2023-06-24T03:23:53;14.90;;;10.45;;
45944;SDS011;31655;48.972;10.686;2023-06-24T03:26:19;15.15;;;11.23;;
45944;SDS011;31655;48.972;10.686;2023-06-24T03:28:45;13.75;;;10.55;;
45944;SDS011;31655;48.972;10.686;2023-06-24T03:31:11;14.90;;;10.88;;
45944;SDS011;31655;48.972;10.686;2023-06-24T03:33:37;12.77;;;10.73;;
45944;SDS011;31655;48.972;10.686;2023-06-24T03:36:03;18.00;;;10.95;;
45944;SDS011;31655;48.972;10.686;2023-06-24T03:38:28;17.58;;;10.88;;
45944;SDS011;31655;48.972;10.686;2023-06-24T03:40:54;16.70;;;10.98;;
45944;SDS011;31655;48.972;10.686;2023-06-24T03:43:20;31.88;;;15.35;;
45944;SDS011;31655;48.972;10.686;2023-06-24T03:45:46;34.47;;;18.20;;
45944;SDS011;31655;48.972;10.686;2023-06-24T03:48:12;20.80;;;12.95;;
45944;SDS011;31655;48.972;10.686;2023-06-24T03:50:38;16.58;;;10.95;;
45944;SDS011;31655;48.972;10.686;2023-06-24T03:53:05;14.13;;;10.82;;
45944;SDS011;31655;48.972;10.686;2023-06-24T03:55:31;16.10;;;11.30;;
45944;SDS011;31655;48.972;10.686;2023-06-24T03:57:57;15.40;;;11.65;;
45944;SDS011;31655;48.972;10.686;2023-06-24T04:00:23;17.17;;;10.30;;
45944;SDS011;31655;48.972;10.686;2023-06-24T04:02:49;21.23;;;11.77;;
45944;SDS011;31655;48.972;10.686;2023-06-24T04:05:17;18.23;;;11.02;;
45944;SDS011;31655;48.972;10.686;2023-06-24T04:07:43;16.83;;;11.55;;
45944;SDS011;31655;48.972;10.686;2023-06-24T04:10:12;18.23;;;10.98;;
45944;SDS011;31655;48.972;10.686;2023-06-24T04:12:38;16.60;;;9.85;;
45944;SDS011;31655;48.972;10.686;2023-06-24T04:15:04;13.77;;;10.10;;
45944;SDS011;31655;48.972;10.686;2023-06-24T04:17:30;16.17;;;10.27;;
45944;SDS011;31655;48.972;10.686;2023-06-24T04:19:56;17.13;;;10.35;;
45944;SDS011;31655;48.972;10.686;2023-06-24T04:22:23;13.27;;;10.23;;
45944;SDS011;31655;48.972;10.686;2023-06-24T04:24:49;14.95;;;11.05;;
45944;SDS011;31655;48.972;10.686;2023-06-24T04:27:15;14.68;;;9.80;;
45944;SDS011;31655;48.972;10.686;2023-06-24T04:29:41;13.88;;;9.27;;
45944;SDS011;31655;48.972;10.686;2023-06-24T04:32:07;16.45;;;9.77;;
45944;SDS011;31655;48.972;10.686;2023-06-24T04:34:33;16.50;;;9.75;;
45944;SDS011;31655;48.972;10.686;2023-06-24T04:36:59;13.23;;;10.05;;
45944;SDS011;31655;48.972;10.686;2023-06-24T04:39:25;14.02;;;9.45;;
45944;SDS011;31655;48.972;10.686;2023-06-24T04:41:51;16.73;;;10.82;;
45944;SDS011;31655;48.972;10.686;2023-06-24T04:44:17;16.05;;;10.15;;
45944;SDS011;31655;48.972;10.686;2023-06-24T04:46:45;26.30;;;13.02;;
45944;SDS011;31655;48.972;10.686;2023-06-24T04:49:10;28.33;;;13.95;;
45944;SDS011;31655;48.972;10.686;2023-06-24T04:51:36;14.32;;;8.15;;
45944;SDS011;31655;48.972;10.686;2023-06-24T04:54:03;13.18;;;6.95;;
45944;SDS011;31655;48.972;10.686;2023-06-24T04:56:29;15.73;;;9.00;;
45944;SDS011;31655;48.972;10.686;2023-06-24T04:58:55;14.75;;;7.22;;
45944;SDS011;31655;48.972;10.686;2023-06-24T05:01:22;13.68;;;7.63;;
45944;SDS011;31655;48.972;10.686;2023-06-24T05:03:48;7.25;;;5.38;;
45944;SDS011;31655;48.972;10.686;2023-06-24T05:06:14;9.15;;;6.03;;
45944;SDS011;31655;48.972;10.686;2023-06-24T05:08:40;7.70;;;6.03;;
45944;SDS011;31655;48.972;10.686;2023-06-24T05:11:05;8.55;;;6.03;;
45944;SDS011;31655;48.972;10.686;2023-06-24T05:13:31;11.23;;;6.70;;
45944;SDS011;31655;48.972;10.686;2023-06-24T05:15:57;5.85;;;5.20;;
45944;SDS011;31655;48.972;10.686;2023-06-24T05:18:23;7.25;;;4.80;;
45944;SDS011;31655;48.972;10.686;2023-06-24T05:20:49;7.85;;;5.93;;
45944;SDS011;31655;48.972;10.686;2023-06-24T05:23:15;8.25;;;5.25;;
45944;SDS011;31655;48.972;10.686;2023-06-24T05:25:41;8.80;;;5.45;;
45944;SDS011;31655;48.972;10.686;2023-06-24T05:28:07;6.68;;;5.20;;
45944;SDS011;31655;48.972;10.686;2023-06-24T05:30:33;5.45;;;4.80;;
45944;SDS011;31655;48.972;10.686;2023-06-24T05:32:59;6.65;;;5.10;;
45944;SDS011;31655;48.972;10.686;2023-06-24T05:35:24;6.57;;;5.15;;
45944;SDS011;31655;48.972;10.686;2023-06-24T05:37:50;6.40;;;4.55;;
45944;SDS011;31655;48.972;10.686;2023-06-24T05:40:16;5.47;;;4.93;;
45944;SDS011;31655;48.972;10.686;2023-06-24T05:42:42;6.97;;;5.30;;
45944;SDS011;31655;48.972;10.686;2023-06-24T05:45:08;5.45;;;4.45;;
45944;SDS011;31655;48.972;10.686;2023-06-24T05:47:34;5.88;;;5.00;;
45944;SDS011;31655;48.972;10.686;2023-06-24T05:50:00;7.28;;;4.80;;
45944;SDS011;31655;48.972;10.686;2023-06-24T05:52:26;6.57;;;4.65;;
45944;SDS011;31655;48.972;10.686;2023-06-24T05:54:53;5.38;;;4.25;;
45944;SDS011;31655;48.972;10.686;2023-06-24T05:57:19;4.32;;;3.92;;
45944;SDS011;31655;48.972;10.686;2023-06-24T05:59:45;6.50;;;5.15;;
45944;SDS011;31655;48.972;10.686;2023-06-24T06:02:11;6.93;;;4.53;;
45944;SDS011;31655;48.972;10.686;2023-06-24T06:04:38;5.35;;;4.68;;
45944;SDS011;31655;48.972;10.686;2023-06-24T06:07:04;6.68;;;4.53;;
45944;SDS011;31655;48.972;10.686;2023-06-24T06:09:30;5.80;;;4.28;;
45944;SDS011;31655;48.972;10.686;2023-06-24T06:11:56;4.60;;;4.20;;
45944;SDS011;31655;48.972;10.686;2023-06-24T06:14:21;4.80;;;4.40;;
45944;SDS011;31655;48.972;10.686;2023-06-24T06:16:47;4.82;;;4.35;;
45944;SDS011;31655;48.972;10.686;2023-06-24T06:19:13;5.65;;;4.57;;
45944;SDS011;31655;48.972;10.686;2023-06-24T06:21:39;7.53;;;5.40;;
45944;SDS011;31655;48.972;10.686;2023-06-24T06:24:05;5.72;;;4.88;;
45944;SDS011;31655;48.972;10.686;2023-06-24T06:26:31;5.35;;;4.32;;
45944;SDS011;31655;48.972;10.686;2023-06-24T06:28:56;4.40;;;3.75;;
45944;SDS011;31655;48.972;10.686;2023-06-24T06:31:22;4.53;;;3.70;;
45944;SDS011;31655;48.972;10.686;2023-06-24T06:33:50;6.53;;;4.28;;
45944;SDS011;31655;48.972;10.686;2023-06-24T06:36:16;5.32;;;3.85;;
45944;SDS011;31655;48.972;10.686;2023-06-24T06:38:42;7.07;;;4.72;;
45944;SDS011;31655;48.972;10.686;2023-06-24T06:41:08;5.28;;;4.05;;
45944;SDS011;31655;48.972;10.686;2023-06-24T06:43:34;5.25;;;4.70;;
45944;SDS011;31655;48.972;10.686;2023-06-24T06:46:00;7.95;;;4.68;;
45944;SDS011;31655;48.972;10.686;2023-06-24T06:48:26;7.70;;;4.85;;
45944;SDS011;31655;48.972;10.686;2023-06-24T06:50:52;5.80;;;4.38;;
45944;SDS011;31655;48.972;10.686;2023-06-24T06:53:18;4.80;;;4.25;;
45944;SDS011;31655;48.972;10.686;2023-06-24T06:55:44;5.65;;;4.45;;
45944;SDS011;31655;48.972;10.686;2023-06-24T06:58:10;6.38;;;4.32;;
45944;SDS011;31655;48.972;10.686;2023-06-24T07:00:36;7.65;;;4.50;;
45944;SDS011;31655;48.972;10.686;2023-06-24T07:03:02;7.82;;;4.68;;
45944;SDS011;31655;48.972;10.686;2023-06-24T07:05:28;4.88;;;4.38;;
45944;SDS011;31655;48.972;10.686;2023-06-24T07:07:53;6.72;;;4.60;;
45944;SDS011;31655;48.972;10.686;2023-06-24T07:10:19;6.82;;;4.32;;
45944;SDS011;31655;48.972;10.686;2023-06-24T07:12:45;4.65;;;4.25;;
45944;SDS011;31655;48.972;10.686;2023-06-24T07:15:11;5.63;;;4.68;;
45944;SDS011;31655;48.972;10.686;2023-06-24T07:17:37;5.60;;;4.10;;
45944;SDS011;31655;48.972;10.686;2023-06-24T07:20:03;4.78;;;4.10;;
45944;SDS011;31655;48.972;10.686;2023-06-24T07:22:30;5.85;;;3.95;;
45944;SDS011;31655;48.972;10.686;2023-06-24T07:24:56;6.25;;;4.78;;
45944;SDS011;31655;48.972;10.686;2023-06-24T07:27:22;5.97;;;4.75;;
45944;SDS011;31655;48.972;10.686;2023-06-24T07:29:48;6.05;;;5.00;;
45944;SDS011;31655;48.972;10.686;2023-06-24T07:32:14;5.93;;;5.10;;
45944;SDS011;31655;48.972;10.686;2023-06-24T07:34:40;6.25;;;4.97;;
45944;SDS011;31655;48.972;10.686;2023-06-24T07:37:06;6.45;;;4.30;;
45944;SDS011;31655;48.972;10.686;2023-06-24T07:39:32;5.78;;;4.53;;
45944;SDS011;31655;48.972;10.686;2023-06-24T07:41:58;6.07;;;5.10;;
45944;SDS011;31655;48.972;10.686;2023-06-24T07:44:24;5.18;;;4.68;;
45944;SDS011;31655;48.972;10.686;2023-06-24T07:46:50;5.72;;;4.00;;
45944;SDS011;31655;48.972;10.686;2023-06-24T07:49:16;5.85;;;4.80;;
45944;SDS011;31655;48.972;10.686;2023-06-24T07:51:42;4.90;;;4.15;;
45944;SDS011;31655;48.972;10.686;2023-06-24T07:54:09;6.28;;;4.78;;
45944;SDS011;31655;48.972;10.686;2023-06-24T07:56:35;5.78;;;4.90;;
45944;SDS011;31655;48.972;10.686;2023-06-24T07:59:01;6.18;;;5.40;;
45944;SDS011;31655;48.972;10.686;2023-06-24T08:01:27;7.13;;;4.80;;
45944;SDS011;31655;48.972;10.686;2023-06-24T08:03:53;5.88;;;5.28;;
45944;SDS011;31655;48.972;10.686;2023-06-24T08:06:19;6.70;;;5.97;;
45944;SDS011;31655;48.972;10.686;2023-06-24T08:08:45;5.38;;;4.88;;
45944;SDS011;31655;48.972;10.686;2023-06-24T08:11:11;7.40;;;5.55;;
45944;SDS011;31655;48.972;10.686;2023-06-24T08:13:38;6.22;;;5.10;;
45944;SDS011;31655;48.972;10.686;2023-06-24T08:16:03;7.63;;;5.63;;
45944;SDS011;31655;48.972;10.686;2023-06-24T08:18:29;7.72;;;5.70;;
45944;SDS011;31655;48.972;10.686;2023-06-24T08:20:55;7.03;;;5.13;;
45944;SDS011;31655;48.972;10.686;2023-06-24T08:23:22;7.00;;;6.07;;
45944;SDS011;31655;48.972;10.686;2023-06-24T08:25:47;6.35;;;5.75;;
45944;SDS011;31655;48.972;10.686;2023-06-24T08:28:13;6.10;;;5.50;;
45944;SDS011;31655;48.972;10.686;2023-06-24T08:30:39;8.80;;;5.88;;
45944;SDS011;31655;48.972;10.686;2023-06-24T08:33:05;6.55;;;5.95;;
45944;SDS011;31655;48.972;10.686;2023-06-24T08:35:31;6.85;;;6.15;;
45944;SDS011;31655;48.972;10.686;2023-06-24T08:37:56;6.22;;;5.63;;
45944;SDS011;31655;48.972;10.686;2023-06-24T08:40:22;5.45;;;4.93;;
45944;SDS011;31655;48.972;10.686;2023-06-24T08:42:47;8.07;;;5.00;;
45944;SDS011;31655;48.972;10.686;2023-06-24T08:45:13;6.57;;;5.50;;
45944;SDS011;31655;48.972;10.686;2023-06-24T08:47:39;7.97;;;6.15;;
45944;SDS011;31655;48.972;10.686;2023-06-24T08:50:08;6.63;;;5.00;;
45944;SDS011;31655;48.972;10.686;2023-06-24T08:52:36;5.57;;;5.05;;
45944;SDS011;31655;48.972;10.686;2023-06-24T08:55:06;6.00;;;4.80;;
45944;SDS011;31655;48.972;10.686;2023-06-24T08:57:35;8.23;;;5.30;;
45944;SDS011;31655;48.972;10.686;2023-06-24T09:00:01;6.28;;;5.65;;
45944;SDS011;31655;48.972;10.686;2023-06-24T09:02:28;6.28;;;5.57;;
45944;SDS011;31655;48.972;10.686;2023-06-24T09:04:55;4.35;;;3.95;;
45944;SDS011;31655;48.972;10.686;2023-06-24T09:07:27;10.15;;;7.05;;
45944;SDS011;31655;48.972;10.686;2023-06-24T09:09:53;12.27;;;9.38;;
45944;SDS011;31655;48.972;10.686;2023-06-24T09:12:19;4.72;;;4.10;;
45944;SDS011;31655;48.972;10.686;2023-06-24T09:14:47;7.25;;;5.20;;
45944;SDS011;31655;48.972;10.686;2023-06-24T09:17:14;5.57;;;4.97;;
45944;SDS011;31655;48.972;10.686;2023-06-24T09:19:39;4.50;;;4.10;;
45944;SDS011;31655;48.972;10.686;2023-06-24T09:22:07;4.80;;;3.97;;
45944;SDS011;31655;48.972;10.686;2023-06-24T09:24:34;4.35;;;4.00;;
45944;SDS011;31655;48.972;10.686;2023-06-24T09:27:02;5.65;;;3.65;;
45944;SDS011;31655;48.972;10.686;2023-06-24T09:29:31;6.07;;;4.72;;
45944;SDS011;31655;48.972;10.686;2023-06-24T09:31:58;6.95;;;5.50;;
45944;SDS011;31655;48.972;10.686;2023-06-24T09:34:25;5.47;;;4.78;;
45944;SDS011;31655;48.972;10.686;2023-06-24T09:36:55;5.43;;;4.93;;
45944;SDS011;31655;48.972;10.686;2023-06-24T09:39:22;8.07;;;5.88;;
45944;SDS011;31655;48.972;10.686;2023-06-24T09:41:59;7.95;;;5.72;;
45944;SDS011;31655;48.972;10.686;2023-06-24T09:44:26;6.30;;;4.75;;
45944;SDS011;31655;48.972;10.686;2023-06-24T09:46:53;5.80;;;4.30;;
45944;SDS011;31655;48.972;10.686;2023-06-24T09:49:19;8.30;;;6.47;;
45944;SDS011;31655;48.972;10.686;2023-06-24T09:51:45;5.88;;;5.30;;
45944;SDS011;31655;48.972;10.686;2023-06-24T09:54:13;7.82;;;5.03;;
45944;SDS011;31655;48.972;10.686;2023-06-24T09:56:42;10.32;;;5.45;;
45944;SDS011;31655;48.972;10.686;2023-06-24T09:59:10;5.22;;;4.70;;
45944;SDS011;31655;48.972;10.686;2023-06-24T10:01:41;5.45;;;4.30;;
45944;SDS011;31655;48.972;10.686;2023-06-24T10:04:09;5.30;;;4.38;;
45944;SDS011;31655;48.972;10.686;2023-06-24T10:06:37;5.18;;;3.83;;
45944;SDS011;31655;48.972;10.686;2023-06-24T10:09:04;5.80;;;4.65;;
45944;SDS011;31655;48.972;10.686;2023-06-24T10:11:30;5.10;;;4.13;;
45944;SDS011;31655;48.972;10.686;2023-06-24T10:13:56;6.78;;;5.40;;
45944;SDS011;31655;48.972;10.686;2023-06-24T10:16:22;8.57;;;5.40;;
45944;SDS011;31655;48.972;10.686;2023-06-24T10:18:48;4.65;;;4.18;;
45944;SDS011;31655;48.972;10.686;2023-06-24T10:21:14;5.85;;;4.93;;
45944;SDS011;31655;48.972;10.686;2023-06-24T10:23:53;10.43;;;6.20;;
45944;SDS011;31655;48.972;10.686;2023-06-24T10:26:23;11.40;;;6.03;;
45944;SDS011;31655;48.972;10.686;2023-06-24T10:36:58;24.73;;;5.10;;
45944;SDS011;31655;48.972;10.686;2023-06-24T10:39:34;4.97;;;3.33;;
45944;SDS011;31655;48.972;10.686;2023-06-24T10:47:38;5.22;;;4.63;;
45944;SDS011;31655;48.972;10.686;2023-06-24T10:50:05;5.18;;;4.68;;
45944;SDS011;31655;48.972;10.686;2023-06-24T10:52:31;5.43;;;4.25;;
45944;SDS011;31655;48.972;10.686;2023-06-24T10:54:58;4.60;;;3.97;;
45944;SDS011;31655;48.972;10.686;2023-06-24T10:57:24;5.15;;;3.92;;
45944;SDS011;31655;48.972;10.686;2023-06-24T10:59:54;7.00;;;4.65;;
45944;SDS011;31655;48.972;10.686;2023-06-24T11:02:22;4.45;;;4.05;;
45944;SDS011;31655;48.972;10.686;2023-06-24T11:07:16;4.10;;;3.67;;
45944;SDS011;31655;48.972;10.686;2023-06-24T11:09:48;8.50;;;3.80;;
45944;SDS011;31655;48.972;10.686;2023-06-24T11:12:14;5.22;;;4.43;;
45944;SDS011;31655;48.972;10.686;2023-06-24T11:14:40;5.18;;;4.00;;
45944;SDS011;31655;48.972;10.686;2023-06-24T11:17:06;6.20;;;3.88;;
45944;SDS011;31655;48.972;10.686;2023-06-24T11:19:32;7.60;;;5.60;;
45944;SDS011;31655;48.972;10.686;2023-06-24T11:21:59;5.47;;;4.88;;
45944;SDS011;31655;48.972;10.686;2023-06-24T11:24:26;6.38;;;5.75;;
45944;SDS011;31655;48.972;10.686;2023-06-24T11:26:53;6.15;;;4.25;;
45944;SDS011;31655;48.972;10.686;2023-06-24T11:29:20;5.25;;;4.75;;
45944;SDS011;31655;48.972;10.686;2023-06-24T11:31:46;6.40;;;5.22;;
45944;SDS011;31655;48.972;10.686;2023-06-24T11:34:12;6.25;;;5.07;;
45944;SDS011;31655;48.972;10.686;2023-06-24T11:36:38;5.03;;;4.53;;
45944;SDS011;31655;48.972;10.686;2023-06-24T11:39:04;8.35;;;6.35;;
45944;SDS011;31655;48.972;10.686;2023-06-24T11:41:30;7.95;;;4.40;;
45944;SDS011;31655;48.972;10.686;2023-06-24T11:43:59;4.90;;;4.50;;
45944;SDS011;31655;48.972;10.686;2023-06-24T11:46:28;10.10;;;4.85;;
45944;SDS011;31655;48.972;10.686;2023-06-24T11:49:08;6.80;;;5.07;;
45944;SDS011;31655;48.972;10.686;2023-06-24T11:51:34;7.40;;;5.18;;
45944;SDS011;31655;48.972;10.686;2023-06-24T11:54:04;5.65;;;4.22;;
45944;SDS011;31655;48.972;10.686;2023-06-24T11:56:35;5.32;;;3.50;;
45944;SDS011;31655;48.972;10.686;2023-06-24T11:59:03;6.97;;;4.15;;
45944;SDS011;31655;48.972;10.686;2023-06-24T12:01:31;5.80;;;3.70;;
45944;SDS011;31655;48.972;10.686;2023-06-24T12:03:59;5.75;;;4.72;;
45944;SDS011;31655;48.972;10.686;2023-06-24T12:06:26;5.15;;;4.45;;
45944;SDS011;31655;48.972;10.686;2023-06-24T12:08:52;6.20;;;4.57;;
45944;SDS011;31655;48.972;10.686;2023-06-24T12:11:18;14.55;;;6.57;;
45944;SDS011;31655;48.972;10.686;2023-06-24T12:13:44;10.10;;;4.63;;
45944;SDS011;31655;48.972;10.686;2023-06-24T12:16:10;5.35;;;3.70;;
45944;SDS011;31655;48.972;10.686;2023-06-24T12:18:36;4.65;;;4.07;;
45944;SDS011;31655;48.972;10.686;2023-06-24T12:21:02;8.70;;;4.55;;
45944;SDS011;31655;48.972;10.686;2023-06-24T12:23:28;5.18;;;4.45;;
45944;SDS011;31655;48.972;10.686;2023-06-24T12:25:54;4.07;;;3.72;;
45944;SDS011;31655;48.972;10.686;2023-06-24T12:28:20;4.18;;;3.65;;
45944;SDS011;31655;48.972;10.686;2023-06-24T12:30:45;4.70;;;4.20;;
45944;SDS011;31655;48.972;10.686;2023-06-24T12:33:13;4.38;;;3.58;;
45944;SDS011;31655;48.972;10.686;2023-06-24T12:35:38;5.35;;;3.42;;
45944;SDS011;31655;48.972;10.686;2023-06-24T12:38:04;5.03;;;4.00;;
45944;SDS011;31655;48.972;10.686;2023-06-24T12:40:30;4.72;;;3.45;;
45944;SDS011;31655;48.972;10.686;2023-06-24T12:42:56;6.57;;;4.28;;
45944;SDS011;31655;48.972;10.686;2023-06-24T12:45:22;4.93;;;4.40;;
45944;SDS011;31655;48.972;10.686;2023-06-24T12:47:48;5.18;;;4.22;;
45944;SDS011;31655;48.972;10.686;2023-06-24T12:50:15;5.28;;;4.05;;
45944;SDS011;31655;48.972;10.686;2023-06-24T12:52:41;6.18;;;4.15;;
45944;SDS011;31655;48.972;10.686;2023-06-24T12:55:07;6.85;;;3.95;;
45944;SDS011;31655;48.972;10.686;2023-06-24T12:57:33;5.50;;;3.55;;
45944;SDS011;31655;48.972;10.686;2023-06-24T12:59:59;5.57;;;4.03;;
45944;SDS011;31655;48.972;10.686;2023-06-24T13:02:25;8.40;;;4.00;;
45944;SDS011;31655;48.972;10.686;2023-06-24T13:04:51;4.60;;;4.20;;
45944;SDS011;31655;48.972;10.686;2023-06-24T13:07:17;4.90;;;3.80;;
45944;SDS011;31655;48.972;10.686;2023-06-24T13:09:43;5.72;;;3.92;;
45944;SDS011;31655;48.972;10.686;2023-06-24T13:12:09;4.57;;;3.75;;
45944;SDS011;31655;48.972;10.686;2023-06-24T13:14:35;5.63;;;4.85;;
45944;SDS011;31655;48.972;10.686;2023-06-24T13:17:01;4.68;;;4.07;;
45944;SDS011;31655;48.972;10.686;2023-06-24T13:19:27;4.40;;;3.65;;
45944;SDS011;31655;48.972;10.686;2023-06-24T13:21:53;4.75;;;3.50;;
45944;SDS011;31655;48.972;10.686;2023-06-24T13:24:19;6.30;;;3.65;;
45944;SDS011;31655;48.972;10.686;2023-06-24T13:26:45;4.05;;;3.53;;
45944;SDS011;31655;48.972;10.686;2023-06-24T13:29:11;8.45;;;4.35;;
45944;SDS011;31655;48.972;10.686;2023-06-24T13:31:38;4.93;;;3.92;;
45944;SDS011;31655;48.972;10.686;2023-06-24T13:34:04;6.90;;;5.22;;
45944;SDS011;31655;48.972;10.686;2023-06-24T13:36:34;4.32;;;3.78;;
45944;SDS011;31655;48.972;10.686;2023-06-24T13:39:01;7.40;;;4.68;;
45944;SDS011;31655;48.972;10.686;2023-06-24T13:41:30;6.38;;;4.38;;
45944;SDS011;31655;48.972;10.686;2023-06-24T13:44:00;11.43;;;4.10;;
45944;SDS011;31655;48.972;10.686;2023-06-24T13:46:27;9.70;;;5.60;;
45944;SDS011;31655;48.972;10.686;2023-06-24T13:48:53;5.75;;;5.20;;
45944;SDS011;31655;48.972;10.686;2023-06-24T13:51:19;6.60;;;4.28;;
45944;SDS011;31655;48.972;10.686;2023-06-24T13:53:47;5.47;;;4.40;;
45944;SDS011;31655;48.972;10.686;2023-06-24T13:56:14;5.40;;;3.90;;
45944;SDS011;31655;48.972;10.686;2023-06-24T13:58:40;4.72;;;4.32;;
45944;SDS011;31655;48.972;10.686;2023-06-24T14:01:06;5.93;;;3.65;;
45944;SDS011;31655;48.972;10.686;2023-06-24T14:03:32;9.25;;;3.75;;
45944;SDS011;31655;48.972;10.686;2023-06-24T14:05:58;4.07;;;3.67;;
45944;SDS011;31655;48.972;10.686;2023-06-24T14:08:26;5.97;;;4.05;;
45944;SDS011;31655;48.972;10.686;2023-06-24T14:10:52;5.15;;;4.13;;
45944;SDS011;31655;48.972;10.686;2023-06-24T14:13:18;4.85;;;4.35;;
45944;SDS011;31655;48.972;10.686;2023-06-24T14:15:44;5.97;;;4.13;;
45944;SDS011;31655;48.972;10.686;2023-06-24T14:18:10;4.22;;;3.58;;
45944;SDS011;31655;48.972;10.686;2023-06-24T14:20:36;4.05;;;3.47;;
45944;SDS011;31655;48.972;10.686;2023-06-24T14:23:03;4.93;;;3.42;;
45944;SDS011;31655;48.972;10.686;2023-06-24T14:25:29;3.97;;;3.20;;
45944;SDS011;31655;48.972;10.686;2023-06-24T14:27:56;5.32;;;3.80;;
45944;SDS011;31655;48.972;10.686;2023-06-24T14:30:22;5.53;;;3.78;;
45944;SDS011;31655;48.972;10.686;2023-06-24T14:32:48;4.28;;;2.88;;
45944;SDS011;31655;48.972;10.686;2023-06-24T14:35:14;4.47;;;3.30;;
45944;SDS011;31655;48.972;10.686;2023-06-24T14:37:39;4.43;;;3.50;;
45944;SDS011;31655;48.972;10.686;2023-06-24T14:40:07;3.15;;;2.85;;
45944;SDS011;31655;48.972;10.686;2023-06-24T14:42:33;3.28;;;2.97;;
45944;SDS011;31655;48.972;10.686;2023-06-24T14:44:59;3.55;;;3.25;;
45944;SDS011;31655;48.972;10.686;2023-06-24T14:47:25;3.83;;;3.03;;
45944;SDS011;31655;48.972;10.686;2023-06-24T14:49:51;4.15;;;3.35;;
45944;SDS011;31655;48.972;10.686;2023-06-24T14:52:17;3.50;;;2.97;;
45944;SDS011;31655;48.972;10.686;2023-06-24T14:54:43;6.88;;;3.08;;
45944;SDS011;31655;48.972;10.686;2023-06-24T14:57:09;4.30;;;3.67;;
45944;SDS011;31655;48.972;10.686;2023-06-24T14:59:35;3.90;;;3.50;;
45944;SDS011;31655;48.972;10.686;2023-06-24T15:02:01;7.90;;;3.63;;
45944;SDS011;31655;48.972;10.686;2023-06-24T15:04:27;4.75;;;3.75;;
45944;SDS011;31655;48.972;10.686;2023-06-24T15:06:53;5.53;;;3.67;;
45944;SDS011;31655;48.972;10.686;2023-06-24T15:09:19;7.15;;;4.45;;
45944;SDS011;31655;48.972;10.686;2023-06-24T15:11:45;5.43;;;3.83;;
45944;SDS011;31655;48.972;10.686;2023-06-24T15:14:11;8.43;;;5.13;;
45944;SDS011;31655;48.972;10.686;2023-06-24T15:16:37;7.15;;;4.93;;
45944;SDS011;31655;48.972;10.686;2023-06-24T15:19:03;4.78;;;3.67;;
45944;SDS011;31655;48.972;10.686;2023-06-24T15:21:29;4.78;;;3.95;;
45944;SDS011;31655;48.972;10.686;2023-06-24T15:23:54;6.63;;;3.40;;
45944;SDS011;31655;48.972;10.686;2023-06-24T15:26:20;5.65;;;3.92;;
45944;SDS011;31655;48.972;10.686;2023-06-24T15:28:46;4.20;;;3.80;;
45944;SDS011;31655;48.972;10.686;2023-06-24T15:31:13;4.55;;;4.07;;
45944;SDS011;31655;48.972;10.686;2023-06-24T15:33:39;7.93;;;6.15;;
45944;SDS011;31655;48.972;10.686;2023-06-24T15:36:05;14.40;;;8.38;;
45944;SDS011;31655;48.972;10.686;2023-06-24T15:38:32;4.85;;;4.05;;
45944;SDS011;31655;48.972;10.686;2023-06-24T15:40:58;4.47;;;3.08;;
45944;SDS011;31655;48.972;10.686;2023-06-24T15:43:24;4.57;;;3.35;;
45944;SDS011;31655;48.972;10.686;2023-06-24T15:45:50;3.55;;;3.08;;
45944;SDS011;31655;48.972;10.686;2023-06-24T15:48:16;4.68;;;3.40;;
45944;SDS011;31655;48.972;10.686;2023-06-24T15:50:42;6.70;;;4.32;;
45944;SDS011;31655;48.972;10.686;2023-06-24T15:53:08;8.10;;;5.93;;
45944;SDS011;31655;48.972;10.686;2023-06-24T15:55:34;5.03;;;3.58;;
45944;SDS011;31655;48.972;10.686;2023-06-24T15:57:59;5.25;;;3.83;;